sensor_id;sensor_type;location;lat;lon;timestamp;P1;durP1;ratioP1;P2;durP2;ratioP2
10661;SDS011;5379;51.034;7.006;2022-10-16T00:01:18;2.97;;;2.07;;
10661;SDS011;5379;51.034;7.006;2022-10-16T00:03:47;2.30;;;2.10;;
10661;SDS011;5379;51.034;7.006;2022-10-16T00:06:15;3.00;;;2.40;;
10661;SDS011;5379;51.034;7.006;2022-10-16T00:08:43;2.70;;;2.50;;
10661;SDS011;5379;51.034;7.006;2022-10-16T00:11:12;5.40;;;2.67;;
10661;SDS011;5379;51.034;7.006;2022-10-16T00:13:44;3.47;;;2.90;;
10661;SDS011;5379;51.034;7.006;2022-10-16T00:16:12;4.17;;;2.53;;
10661;SDS011;5379;51.034;7.006;2022-10-16T00:18:40;2.13;;;2.03;;
10661;SDS011;5379;51.034;7.006;2022-10-16T00:21:08;2.23;;;1.77;;
10661;SDS011;5379;51.034;7.006;2022-10-16T00:23:37;2.00;;;1.90;;
10661;SDS011;5379;51.034;7.006;2022-10-16T00:26:05;4.73;;;2.10;;
10661;SDS011;5379;51.034;7.006;2022-10-16T00:28:34;1.57;;;1.47;;
10661;SDS011;5379;51.034;7.006;2022-10-16T00:31:04;3.67;;;1.50;;
10661;SDS011;5379;51.034;7.006;2022-10-16T00:33:32;1.80;;;1.43;;
10661;SDS011;5379;51.034;7.006;2022-10-16T00:35:59;3.37;;;1.70;;
10661;SDS011;5379;51.034;7.006;2022-10-16T00:38:26;1.70;;;1.60;;
10661;SDS011;5379;51.034;7.006;2022-10-16T00:40:54;2.30;;;2.10;;
10661;SDS011;5379;51.034;7.006;2022-10-16T00:43:34;2.00;;;1.90;;
10661;SDS011;5379;51.034;7.006;2022-10-16T00:46:08;1.60;;;1.50;;
10661;SDS011;5379;51.034;7.006;2022-10-16T00:48:39;2.03;;;1.83;;
10661;SDS011;5379;51.034;7.006;2022-10-16T00:51:06;3.60;;;1.90;;
10661;SDS011;5379;51.034;7.006;2022-10-16T00:53:34;1.90;;;1.80;;
10661;SDS011;5379;51.034;7.006;2022-10-16T00:56:02;1.40;;;1.40;;
10661;SDS011;5379;51.034;7.006;2022-10-16T00:58:30;2.47;;;1.70;;
10661;SDS011;5379;51.034;7.006;2022-10-16T01:00:57;2.20;;;2.00;;
10661;SDS011;5379;51.034;7.006;2022-10-16T01:03:27;1.70;;;1.60;;
10661;SDS011;5379;51.034;7.006;2022-10-16T01:05:59;3.37;;;2.00;;
10661;SDS011;5379;51.034;7.006;2022-10-16T01:08:37;1.70;;;1.60;;
10661;SDS011;5379;51.034;7.006;2022-10-16T01:11:12;1.80;;;1.70;;
10661;SDS011;5379;51.034;7.006;2022-10-16T01:13:48;2.00;;;1.60;;
10661;SDS011;5379;51.034;7.006;2022-10-16T01:16:20;4.10;;;2.20;;
10661;SDS011;5379;51.034;7.006;2022-10-16T01:18:59;1.60;;;1.50;;
10661;SDS011;5379;51.034;7.006;2022-10-16T01:21:31;1.10;;;1.10;;
10661;SDS011;5379;51.034;7.006;2022-10-16T01:24:03;1.40;;;1.30;;
10661;SDS011;5379;51.034;7.006;2022-10-16T01:26:42;1.30;;;1.30;;
10661;SDS011;5379;51.034;7.006;2022-10-16T01:29:20;1.20;;;1.03;;
10661;SDS011;5379;51.034;7.006;2022-10-16T01:31:53;2.17;;;1.20;;
10661;SDS011;5379;51.034;7.006;2022-10-16T01:34:23;1.50;;;1.40;;
10661;SDS011;5379;51.034;7.006;2022-10-16T01:36:55;1.30;;;1.20;;
10661;SDS011;5379;51.034;7.006;2022-10-16T01:39:28;1.13;;;1.13;;
10661;SDS011;5379;51.034;7.006;2022-10-16T01:41:59;7.50;;;1.40;;
10661;SDS011;5379;51.034;7.006;2022-10-16T01:44:32;1.23;;;1.10;;
10661;SDS011;5379;51.034;7.006;2022-10-16T01:47:01;2.17;;;1.50;;
10661;SDS011;5379;51.034;7.006;2022-10-16T01:49:30;2.13;;;1.50;;
10661;SDS011;5379;51.034;7.006;2022-10-16T01:52:00;2.23;;;1.30;;
10661;SDS011;5379;51.034;7.006;2022-10-16T01:54:31;2.40;;;1.50;;
10661;SDS011;5379;51.034;7.006;2022-10-16T01:57:00;1.70;;;1.40;;
10661;SDS011;5379;51.034;7.006;2022-10-16T01:59:32;1.33;;;1.23;;
10661;SDS011;5379;51.034;7.006;2022-10-16T02:02:04;1.50;;;1.40;;
10661;SDS011;5379;51.034;7.006;2022-10-16T02:04:37;1.37;;;1.27;;
10661;SDS011;5379;51.034;7.006;2022-10-16T02:07:06;1.70;;;1.20;;
10661;SDS011;5379;51.034;7.006;2022-10-16T02:09:33;1.63;;;1.53;;
10661;SDS011;5379;51.034;7.006;2022-10-16T02:12:03;1.10;;;1.10;;
10661;SDS011;5379;51.034;7.006;2022-10-16T02:14:38;1.50;;;1.40;;
10661;SDS011;5379;51.034;7.006;2022-10-16T02:17:10;3.57;;;2.80;;
10661;SDS011;5379;51.034;7.006;2022-10-16T02:19:37;5.30;;;3.07;;
10661;SDS011;5379;51.034;7.006;2022-10-16T02:22:05;3.73;;;3.10;;
10661;SDS011;5379;51.034;7.006;2022-10-16T02:24:37;4.70;;;4.20;;
10661;SDS011;5379;51.034;7.006;2022-10-16T02:27:10;3.97;;;3.57;;
10661;SDS011;5379;51.034;7.006;2022-10-16T02:29:42;4.03;;;3.30;;
10661;SDS011;5379;51.034;7.006;2022-10-16T02:32:15;8.93;;;3.40;;
10661;SDS011;5379;51.034;7.006;2022-10-16T02:34:46;2.83;;;2.60;;
10661;SDS011;5379;51.034;7.006;2022-10-16T02:37:15;2.30;;;2.10;;
10661;SDS011;5379;51.034;7.006;2022-10-16T02:39:44;2.53;;;2.33;;
10661;SDS011;5379;51.034;7.006;2022-10-16T02:42:11;8.17;;;1.93;;
10661;SDS011;5379;51.034;7.006;2022-10-16T02:44:38;3.20;;;2.00;;
10661;SDS011;5379;51.034;7.006;2022-10-16T02:47:06;1.97;;;1.87;;
10661;SDS011;5379;51.034;7.006;2022-10-16T02:49:33;1.77;;;1.60;;
10661;SDS011;5379;51.034;7.006;2022-10-16T02:52:00;1.40;;;1.37;;
10661;SDS011;5379;51.034;7.006;2022-10-16T02:54:28;1.30;;;1.30;;
10661;SDS011;5379;51.034;7.006;2022-10-16T02:56:55;2.00;;;1.43;;
10661;SDS011;5379;51.034;7.006;2022-10-16T02:59:21;2.73;;;1.50;;
10661;SDS011;5379;51.034;7.006;2022-10-16T03:01:48;1.83;;;1.60;;
10661;SDS011;5379;51.034;7.006;2022-10-16T03:04:17;6.10;;;1.60;;
10661;SDS011;5379;51.034;7.006;2022-10-16T03:06:44;1.43;;;1.27;;
10661;SDS011;5379;51.034;7.006;2022-10-16T03:09:11;4.50;;;1.30;;
10661;SDS011;5379;51.034;7.006;2022-10-16T03:11:38;2.00;;;1.40;;
10661;SDS011;5379;51.034;7.006;2022-10-16T03:14:05;2.73;;;1.37;;
10661;SDS011;5379;51.034;7.006;2022-10-16T03:16:32;1.47;;;1.20;;
10661;SDS011;5379;51.034;7.006;2022-10-16T03:18:59;1.00;;;1.00;;
10661;SDS011;5379;51.034;7.006;2022-10-16T03:21:27;1.00;;;0.90;;
10661;SDS011;5379;51.034;7.006;2022-10-16T03:23:54;1.93;;;1.40;;
10661;SDS011;5379;51.034;7.006;2022-10-16T03:26:21;1.27;;;1.17;;
10661;SDS011;5379;51.034;7.006;2022-10-16T03:28:48;1.90;;;1.70;;
10661;SDS011;5379;51.034;7.006;2022-10-16T03:31:15;5.57;;;1.97;;
10661;SDS011;5379;51.034;7.006;2022-10-16T03:33:42;1.53;;;1.43;;
10661;SDS011;5379;51.034;7.006;2022-10-16T03:36:09;2.57;;;1.70;;
10661;SDS011;5379;51.034;7.006;2022-10-16T03:38:37;1.77;;;1.63;;
10661;SDS011;5379;51.034;7.006;2022-10-16T03:41:04;1.70;;;1.60;;
10661;SDS011;5379;51.034;7.006;2022-10-16T03:43:32;1.53;;;1.43;;
10661;SDS011;5379;51.034;7.006;2022-10-16T03:45:59;2.20;;;1.63;;
10661;SDS011;5379;51.034;7.006;2022-10-16T03:48:26;1.40;;;1.37;;
10661;SDS011;5379;51.034;7.006;2022-10-16T03:50:53;1.23;;;1.23;;
10661;SDS011;5379;51.034;7.006;2022-10-16T03:53:20;1.27;;;1.27;;
10661;SDS011;5379;51.034;7.006;2022-10-16T03:55:49;1.17;;;1.17;;
10661;SDS011;5379;51.034;7.006;2022-10-16T03:58:16;1.20;;;1.20;;
10661;SDS011;5379;51.034;7.006;2022-10-16T04:00:43;1.37;;;1.10;;
10661;SDS011;5379;51.034;7.006;2022-10-16T04:03:11;6.57;;;1.30;;
10661;SDS011;5379;51.034;7.006;2022-10-16T04:05:38;1.33;;;1.33;;
10661;SDS011;5379;51.034;7.006;2022-10-16T04:08:06;4.13;;;1.70;;
10661;SDS011;5379;51.034;7.006;2022-10-16T04:10:33;1.90;;;1.70;;
10661;SDS011;5379;51.034;7.006;2022-10-16T04:13:01;2.00;;;1.53;;
10661;SDS011;5379;51.034;7.006;2022-10-16T04:15:28;6.03;;;2.00;;
10661;SDS011;5379;51.034;7.006;2022-10-16T04:17:55;1.90;;;1.50;;
10661;SDS011;5379;51.034;7.006;2022-10-16T04:20:22;2.70;;;1.67;;
10661;SDS011;5379;51.034;7.006;2022-10-16T04:22:49;1.60;;;1.50;;
10661;SDS011;5379;51.034;7.006;2022-10-16T04:25:16;1.80;;;1.50;;
10661;SDS011;5379;51.034;7.006;2022-10-16T04:27:43;1.60;;;1.50;;
10661;SDS011;5379;51.034;7.006;2022-10-16T04:30:12;4.30;;;1.63;;
10661;SDS011;5379;51.034;7.006;2022-10-16T04:32:39;4.87;;;1.40;;
10661;SDS011;5379;51.034;7.006;2022-10-16T04:35:06;1.90;;;1.70;;
10661;SDS011;5379;51.034;7.006;2022-10-16T04:37:34;2.90;;;1.83;;
10661;SDS011;5379;51.034;7.006;2022-10-16T04:40:01;1.47;;;1.37;;
10661;SDS011;5379;51.034;7.006;2022-10-16T04:42:28;1.57;;;1.30;;
10661;SDS011;5379;51.034;7.006;2022-10-16T04:44:55;3.40;;;1.60;;
10661;SDS011;5379;51.034;7.006;2022-10-16T04:47:24;1.90;;;1.67;;
10661;SDS011;5379;51.034;7.006;2022-10-16T04:49:51;1.30;;;1.20;;
10661;SDS011;5379;51.034;7.006;2022-10-16T04:52:18;2.60;;;1.63;;
10661;SDS011;5379;51.034;7.006;2022-10-16T04:54:46;1.23;;;1.23;;
10661;SDS011;5379;51.034;7.006;2022-10-16T04:57:15;4.53;;;1.70;;
10661;SDS011;5379;51.034;7.006;2022-10-16T04:59:42;1.50;;;1.40;;
10661;SDS011;5379;51.034;7.006;2022-10-16T05:02:09;1.53;;;1.43;;
10661;SDS011;5379;51.034;7.006;2022-10-16T05:04:37;2.97;;;1.47;;
10661;SDS011;5379;51.034;7.006;2022-10-16T05:07:04;1.20;;;1.20;;
10661;SDS011;5379;51.034;7.006;2022-10-16T05:09:31;1.90;;;1.37;;
10661;SDS011;5379;51.034;7.006;2022-10-16T05:11:58;1.50;;;1.40;;
10661;SDS011;5379;51.034;7.006;2022-10-16T05:14:25;1.53;;;1.43;;
10661;SDS011;5379;51.034;7.006;2022-10-16T05:16:52;2.57;;;1.50;;
10661;SDS011;5379;51.034;7.006;2022-10-16T05:19:19;1.20;;;1.10;;
10661;SDS011;5379;51.034;7.006;2022-10-16T05:21:47;1.20;;;1.20;;
10661;SDS011;5379;51.034;7.006;2022-10-16T05:24:15;2.23;;;1.57;;
10661;SDS011;5379;51.034;7.006;2022-10-16T05:26:42;1.97;;;1.30;;
10661;SDS011;5379;51.034;7.006;2022-10-16T05:29:09;1.23;;;1.20;;
10661;SDS011;5379;51.034;7.006;2022-10-16T05:31:36;1.63;;;1.53;;
10661;SDS011;5379;51.034;7.006;2022-10-16T05:34:03;1.83;;;1.23;;
10661;SDS011;5379;51.034;7.006;2022-10-16T05:36:30;3.07;;;1.63;;
10661;SDS011;5379;51.034;7.006;2022-10-16T05:38:58;1.90;;;1.50;;
10661;SDS011;5379;51.034;7.006;2022-10-16T05:41:25;1.43;;;1.33;;
10661;SDS011;5379;51.034;7.006;2022-10-16T05:43:52;1.57;;;1.47;;
10661;SDS011;5379;51.034;7.006;2022-10-16T05:46:19;2.67;;;1.50;;
10661;SDS011;5379;51.034;7.006;2022-10-16T05:48:46;1.30;;;1.30;;
10661;SDS011;5379;51.034;7.006;2022-10-16T05:51:14;2.53;;;1.40;;
10661;SDS011;5379;51.034;7.006;2022-10-16T05:53:41;4.63;;;1.60;;
10661;SDS011;5379;51.034;7.006;2022-10-16T05:56:10;1.00;;;1.00;;
10661;SDS011;5379;51.034;7.006;2022-10-16T05:58:38;1.70;;;1.37;;
10661;SDS011;5379;51.034;7.006;2022-10-16T06:01:06;1.40;;;1.30;;
10661;SDS011;5379;51.034;7.006;2022-10-16T06:03:37;1.27;;;1.23;;
10661;SDS011;5379;51.034;7.006;2022-10-16T06:06:07;1.43;;;1.30;;
10661;SDS011;5379;51.034;7.006;2022-10-16T06:08:35;1.20;;;1.10;;
10661;SDS011;5379;51.034;7.006;2022-10-16T06:11:02;7.80;;;1.27;;
10661;SDS011;5379;51.034;7.006;2022-10-16T06:13:34;1.00;;;1.00;;
10661;SDS011;5379;51.034;7.006;2022-10-16T06:16:02;1.67;;;1.20;;
10661;SDS011;5379;51.034;7.006;2022-10-16T06:18:30;2.10;;;1.37;;
10661;SDS011;5379;51.034;7.006;2022-10-16T06:20:57;1.00;;;1.00;;
10661;SDS011;5379;51.034;7.006;2022-10-16T06:23:24;2.97;;;1.43;;
10661;SDS011;5379;51.034;7.006;2022-10-16T06:25:51;7.77;;;1.30;;
10661;SDS011;5379;51.034;7.006;2022-10-16T06:28:18;1.50;;;1.40;;
10661;SDS011;5379;51.034;7.006;2022-10-16T06:30:47;1.33;;;1.23;;
10661;SDS011;5379;51.034;7.006;2022-10-16T06:33:14;1.40;;;1.40;;
10661;SDS011;5379;51.034;7.006;2022-10-16T06:35:40;1.33;;;1.33;;
10661;SDS011;5379;51.034;7.006;2022-10-16T06:38:07;14.30;;;1.20;;
10661;SDS011;5379;51.034;7.006;2022-10-16T06:40:34;3.20;;;1.30;;
10661;SDS011;5379;51.034;7.006;2022-10-16T06:43:01;2.27;;;1.20;;
10661;SDS011;5379;51.034;7.006;2022-10-16T06:45:28;0.93;;;0.93;;
10661;SDS011;5379;51.034;7.006;2022-10-16T06:47:57;3.10;;;1.40;;
10661;SDS011;5379;51.034;7.006;2022-10-16T06:50:24;1.83;;;1.30;;
10661;SDS011;5379;51.034;7.006;2022-10-16T06:52:51;4.93;;;1.30;;
10661;SDS011;5379;51.034;7.006;2022-10-16T06:55:18;1.30;;;1.27;;
10661;SDS011;5379;51.034;7.006;2022-10-16T06:57:46;1.00;;;1.00;;
10661;SDS011;5379;51.034;7.006;2022-10-16T07:00:13;1.37;;;1.13;;
10661;SDS011;5379;51.034;7.006;2022-10-16T07:02:41;1.10;;;1.10;;
10661;SDS011;5379;51.034;7.006;2022-10-16T07:05:09;2.23;;;1.70;;
10661;SDS011;5379;51.034;7.006;2022-10-16T07:07:36;3.90;;;1.50;;
10661;SDS011;5379;51.034;7.006;2022-10-16T07:10:03;1.50;;;1.40;;
10661;SDS011;5379;51.034;7.006;2022-10-16T07:12:31;4.10;;;1.70;;
10661;SDS011;5379;51.034;7.006;2022-10-16T07:14:58;1.40;;;1.30;;
10661;SDS011;5379;51.034;7.006;2022-10-16T07:17:24;6.53;;;1.20;;
10661;SDS011;5379;51.034;7.006;2022-10-16T07:19:51;1.10;;;1.10;;
10661;SDS011;5379;51.034;7.006;2022-10-16T07:22:21;1.70;;;1.40;;
10661;SDS011;5379;51.034;7.006;2022-10-16T07:24:48;1.50;;;1.07;;
10661;SDS011;5379;51.034;7.006;2022-10-16T07:27:16;2.60;;;1.17;;
10661;SDS011;5379;51.034;7.006;2022-10-16T07:29:43;1.10;;;1.07;;
10661;SDS011;5379;51.034;7.006;2022-10-16T07:32:10;1.00;;;1.00;;
10661;SDS011;5379;51.034;7.006;2022-10-16T07:34:37;1.20;;;1.20;;
10661;SDS011;5379;51.034;7.006;2022-10-16T07:37:04;1.50;;;1.33;;
10661;SDS011;5379;51.034;7.006;2022-10-16T07:39:33;1.53;;;1.33;;
10661;SDS011;5379;51.034;7.006;2022-10-16T07:41:59;1.20;;;1.10;;
10661;SDS011;5379;51.034;7.006;2022-10-16T07:44:27;1.60;;;1.20;;
10661;SDS011;5379;51.034;7.006;2022-10-16T07:46:54;1.27;;;1.20;;
10661;SDS011;5379;51.034;7.006;2022-10-16T07:49:21;1.30;;;1.20;;
10661;SDS011;5379;51.034;7.006;2022-10-16T07:51:48;1.30;;;1.20;;
10661;SDS011;5379;51.034;7.006;2022-10-16T07:54:15;3.33;;;1.20;;
10661;SDS011;5379;51.034;7.006;2022-10-16T07:56:43;2.23;;;1.40;;
10661;SDS011;5379;51.034;7.006;2022-10-16T07:59:10;1.50;;;1.50;;
10661;SDS011;5379;51.034;7.006;2022-10-16T08:01:38;1.73;;;1.30;;
10661;SDS011;5379;51.034;7.006;2022-10-16T08:04:07;1.40;;;1.30;;
10661;SDS011;5379;51.034;7.006;2022-10-16T08:06:35;1.20;;;1.20;;
10661;SDS011;5379;51.034;7.006;2022-10-16T08:09:04;1.47;;;1.40;;
10661;SDS011;5379;51.034;7.006;2022-10-16T08:11:31;1.70;;;1.43;;
10661;SDS011;5379;51.034;7.006;2022-10-16T08:13:59;1.13;;;1.13;;
10661;SDS011;5379;51.034;7.006;2022-10-16T08:16:26;1.30;;;1.20;;
10661;SDS011;5379;51.034;7.006;2022-10-16T08:18:54;1.60;;;0.93;;
10661;SDS011;5379;51.034;7.006;2022-10-16T08:21:23;2.30;;;1.20;;
10661;SDS011;5379;51.034;7.006;2022-10-16T08:23:50;1.27;;;1.17;;
10661;SDS011;5379;51.034;7.006;2022-10-16T08:26:19;1.60;;;1.23;;
10661;SDS011;5379;51.034;7.006;2022-10-16T08:28:50;2.10;;;1.33;;
10661;SDS011;5379;51.034;7.006;2022-10-16T08:31:18;1.90;;;1.23;;
10661;SDS011;5379;51.034;7.006;2022-10-16T08:33:46;2.80;;;1.30;;
10661;SDS011;5379;51.034;7.006;2022-10-16T08:36:13;1.30;;;1.17;;
10661;SDS011;5379;51.034;7.006;2022-10-16T08:38:41;0.77;;;0.77;;
10661;SDS011;5379;51.034;7.006;2022-10-16T08:41:17;4.73;;;0.83;;
10661;SDS011;5379;51.034;7.006;2022-10-16T08:44:19;1.47;;;1.03;;
10661;SDS011;5379;51.034;7.006;2022-10-16T08:46:58;0.87;;;0.67;;
10661;SDS011;5379;51.034;7.006;2022-10-16T08:49:34;0.70;;;0.70;;
10661;SDS011;5379;51.034;7.006;2022-10-16T08:52:03;0.70;;;0.70;;
10661;SDS011;5379;51.034;7.006;2022-10-16T08:54:31;2.33;;;0.90;;
10661;SDS011;5379;51.034;7.006;2022-10-16T08:57:07;1.87;;;1.10;;
10661;SDS011;5379;51.034;7.006;2022-10-16T08:59:37;1.27;;;0.90;;
10661;SDS011;5379;51.034;7.006;2022-10-16T09:02:11;0.70;;;0.70;;
10661;SDS011;5379;51.034;7.006;2022-10-16T09:04:58;1.60;;;0.87;;
10661;SDS011;5379;51.034;7.006;2022-10-16T09:07:43;0.97;;;0.97;;
10661;SDS011;5379;51.034;7.006;2022-10-16T09:10:20;1.97;;;0.97;;
10661;SDS011;5379;51.034;7.006;2022-10-16T09:12:58;0.80;;;0.80;;
10661;SDS011;5379;51.034;7.006;2022-10-16T09:15:39;0.87;;;0.87;;
10661;SDS011;5379;51.034;7.006;2022-10-16T09:18:12;0.60;;;0.60;;
10661;SDS011;5379;51.034;7.006;2022-10-16T09:20:45;0.80;;;0.80;;
10661;SDS011;5379;51.034;7.006;2022-10-16T09:23:18;0.87;;;0.67;;
10661;SDS011;5379;51.034;7.006;2022-10-16T09:25:48;1.03;;;0.70;;
10661;SDS011;5379;51.034;7.006;2022-10-16T09:28:17;2.30;;;1.00;;
10661;SDS011;5379;51.034;7.006;2022-10-16T09:30:45;0.60;;;0.60;;
10661;SDS011;5379;51.034;7.006;2022-10-16T09:33:15;0.53;;;0.53;;
10661;SDS011;5379;51.034;7.006;2022-10-16T09:35:44;0.80;;;0.80;;
10661;SDS011;5379;51.034;7.006;2022-10-16T09:38:24;1.00;;;0.90;;
10661;SDS011;5379;51.034;7.006;2022-10-16T09:40:53;0.60;;;0.60;;
10661;SDS011;5379;51.034;7.006;2022-10-16T09:43:22;0.77;;;0.77;;
10661;SDS011;5379;51.034;7.006;2022-10-16T09:45:53;1.57;;;0.83;;
10661;SDS011;5379;51.034;7.006;2022-10-16T09:48:23;0.70;;;0.70;;
10661;SDS011;5379;51.034;7.006;2022-10-16T09:50:57;0.70;;;0.70;;
10661;SDS011;5379;51.034;7.006;2022-10-16T09:53:25;0.60;;;0.60;;
10661;SDS011;5379;51.034;7.006;2022-10-16T09:56:04;1.87;;;0.60;;
10661;SDS011;5379;51.034;7.006;2022-10-16T09:58:32;7.57;;;1.30;;
10661;SDS011;5379;51.034;7.006;2022-10-16T10:00:59;3.17;;;0.57;;
10661;SDS011;5379;51.034;7.006;2022-10-16T10:03:37;1.80;;;0.90;;
10661;SDS011;5379;51.034;7.006;2022-10-16T10:06:14;1.27;;;1.10;;
10661;SDS011;5379;51.034;7.006;2022-10-16T10:08:57;0.83;;;0.60;;
10661;SDS011;5379;51.034;7.006;2022-10-16T10:11:42;3.83;;;0.70;;
10661;SDS011;5379;51.034;7.006;2022-10-16T10:14:21;0.50;;;0.50;;
10661;SDS011;5379;51.034;7.006;2022-10-16T10:16:50;0.73;;;0.73;;
10661;SDS011;5379;51.034;7.006;2022-10-16T10:19:20;2.90;;;0.77;;
10661;SDS011;5379;51.034;7.006;2022-10-16T10:21:49;0.63;;;0.47;;
10661;SDS011;5379;51.034;7.006;2022-10-16T10:24:17;0.80;;;0.80;;
10661;SDS011;5379;51.034;7.006;2022-10-16T10:26:49;1.80;;;0.80;;
10661;SDS011;5379;51.034;7.006;2022-10-16T10:29:24;0.57;;;0.57;;
10661;SDS011;5379;51.034;7.006;2022-10-16T10:32:12;0.70;;;0.57;;
10661;SDS011;5379;51.034;7.006;2022-10-16T10:34:55;2.27;;;0.80;;
10661;SDS011;5379;51.034;7.006;2022-10-16T10:40:30;0.60;;;0.60;;
10661;SDS011;5379;51.034;7.006;2022-10-16T10:43:07;1.20;;;0.83;;
10661;SDS011;5379;51.034;7.006;2022-10-16T10:45:44;1.37;;;0.40;;
10661;SDS011;5379;51.034;7.006;2022-10-16T10:48:17;0.50;;;0.50;;
10661;SDS011;5379;51.034;7.006;2022-10-16T10:50:54;0.83;;;0.50;;
10661;SDS011;5379;51.034;7.006;2022-10-16T10:53:31;0.57;;;0.50;;
10661;SDS011;5379;51.034;7.006;2022-10-16T10:56:10;0.60;;;0.60;;
10661;SDS011;5379;51.034;7.006;2022-10-16T10:58:49;0.47;;;0.47;;
10661;SDS011;5379;51.034;7.006;2022-10-16T11:01:26;0.70;;;0.70;;
10661;SDS011;5379;51.034;7.006;2022-10-16T11:04:04;0.57;;;0.40;;
10661;SDS011;5379;51.034;7.006;2022-10-16T11:06:55;1.23;;;0.63;;
10661;SDS011;5379;51.034;7.006;2022-10-16T11:09:25;1.53;;;0.70;;
10661;SDS011;5379;51.034;7.006;2022-10-16T11:11:56;0.40;;;0.40;;
10661;SDS011;5379;51.034;7.006;2022-10-16T11:14:27;0.40;;;0.40;;
10661;SDS011;5379;51.034;7.006;2022-10-16T11:16:58;1.13;;;0.70;;
10661;SDS011;5379;51.034;7.006;2022-10-16T11:19:31;0.80;;;0.80;;
10661;SDS011;5379;51.034;7.006;2022-10-16T11:22:06;0.70;;;0.60;;
10661;SDS011;5379;51.034;7.006;2022-10-16T11:24:41;1.83;;;0.80;;
10661;SDS011;5379;51.034;7.006;2022-10-16T11:27:12;0.77;;;0.70;;
10661;SDS011;5379;51.034;7.006;2022-10-16T11:29:44;2.87;;;0.70;;
10661;SDS011;5379;51.034;7.006;2022-10-16T11:32:19;0.70;;;0.63;;
10661;SDS011;5379;51.034;7.006;2022-10-16T11:34:50;0.60;;;0.60;;
10661;SDS011;5379;51.034;7.006;2022-10-16T11:37:25;1.30;;;0.80;;
10661;SDS011;5379;51.034;7.006;2022-10-16T11:39:58;0.33;;;0.33;;
10661;SDS011;5379;51.034;7.006;2022-10-16T11:42:36;0.27;;;0.27;;
10661;SDS011;5379;51.034;7.006;2022-10-16T11:45:08;0.47;;;0.47;;
10661;SDS011;5379;51.034;7.006;2022-10-16T11:47:48;0.83;;;0.67;;
10661;SDS011;5379;51.034;7.006;2022-10-16T11:50:23;0.47;;;0.40;;
10661;SDS011;5379;51.034;7.006;2022-10-16T11:52:55;0.87;;;0.83;;
10661;SDS011;5379;51.034;7.006;2022-10-16T11:55:27;1.43;;;0.70;;
10661;SDS011;5379;51.034;7.006;2022-10-16T11:57:59;1.00;;;0.83;;
10661;SDS011;5379;51.034;7.006;2022-10-16T12:00:29;1.37;;;0.50;;
10661;SDS011;5379;51.034;7.006;2022-10-16T12:03:03;1.67;;;0.90;;
10661;SDS011;5379;51.034;7.006;2022-10-16T12:05:42;1.40;;;0.60;;
10661;SDS011;5379;51.034;7.006;2022-10-16T12:08:20;0.60;;;0.37;;
10661;SDS011;5379;51.034;7.006;2022-10-16T12:10:47;0.63;;;0.60;;
10661;SDS011;5379;51.034;7.006;2022-10-16T12:13:27;0.47;;;0.47;;
10661;SDS011;5379;51.034;7.006;2022-10-16T12:16:03;0.40;;;0.40;;
10661;SDS011;5379;51.034;7.006;2022-10-16T12:18:31;0.70;;;0.60;;
10661;SDS011;5379;51.034;7.006;2022-10-16T12:20:59;0.40;;;0.40;;
10661;SDS011;5379;51.034;7.006;2022-10-16T12:23:32;0.40;;;0.40;;
10661;SDS011;5379;51.034;7.006;2022-10-16T12:26:02;1.40;;;0.50;;
10661;SDS011;5379;51.034;7.006;2022-10-16T12:28:31;1.10;;;0.50;;
10661;SDS011;5379;51.034;7.006;2022-10-16T12:31:00;0.83;;;0.83;;
10661;SDS011;5379;51.034;7.006;2022-10-16T12:33:28;1.77;;;0.83;;
10661;SDS011;5379;51.034;7.006;2022-10-16T12:35:57;1.07;;;0.53;;
10661;SDS011;5379;51.034;7.006;2022-10-16T12:38:27;0.70;;;0.70;;
10661;SDS011;5379;51.034;7.006;2022-10-16T12:41:00;1.43;;;0.60;;
10661;SDS011;5379;51.034;7.006;2022-10-16T12:43:36;1.50;;;0.63;;
10661;SDS011;5379;51.034;7.006;2022-10-16T12:46:21;0.57;;;0.57;;
10661;SDS011;5379;51.034;7.006;2022-10-16T12:48:50;0.50;;;0.50;;
10661;SDS011;5379;51.034;7.006;2022-10-16T12:51:22;1.27;;;0.70;;
10661;SDS011;5379;51.034;7.006;2022-10-16T12:54:00;1.53;;;0.73;;
10661;SDS011;5379;51.034;7.006;2022-10-16T12:56:34;0.60;;;0.60;;
10661;SDS011;5379;51.034;7.006;2022-10-16T12:59:14;0.60;;;0.60;;
10661;SDS011;5379;51.034;7.006;2022-10-16T13:01:54;1.70;;;0.80;;
10661;SDS011;5379;51.034;7.006;2022-10-16T13:04:38;0.67;;;0.63;;
10661;SDS011;5379;51.034;7.006;2022-10-16T13:07:18;1.20;;;0.60;;
10661;SDS011;5379;51.034;7.006;2022-10-16T13:10:01;0.83;;;0.70;;
10661;SDS011;5379;51.034;7.006;2022-10-16T13:18:28;0.50;;;0.50;;
10661;SDS011;5379;51.034;7.006;2022-10-16T13:21:06;0.30;;;0.30;;
10661;SDS011;5379;51.034;7.006;2022-10-16T13:23:42;2.57;;;0.73;;
10661;SDS011;5379;51.034;7.006;2022-10-16T13:26:18;2.40;;;0.40;;
10661;SDS011;5379;51.034;7.006;2022-10-16T13:28:52;6.73;;;0.60;;
10661;SDS011;5379;51.034;7.006;2022-10-16T13:31:20;1.27;;;0.67;;
10661;SDS011;5379;51.034;7.006;2022-10-16T13:33:51;0.70;;;0.70;;
10661;SDS011;5379;51.034;7.006;2022-10-16T13:36:21;2.70;;;0.70;;
10661;SDS011;5379;51.034;7.006;2022-10-16T13:38:58;1.10;;;0.50;;
10661;SDS011;5379;51.034;7.006;2022-10-16T13:41:27;3.60;;;0.80;;
10661;SDS011;5379;51.034;7.006;2022-10-16T13:43:55;3.00;;;0.80;;
10661;SDS011;5379;51.034;7.006;2022-10-16T13:46:23;3.97;;;0.83;;
10661;SDS011;5379;51.034;7.006;2022-10-16T13:48:57;0.33;;;0.33;;
10661;SDS011;5379;51.034;7.006;2022-10-16T13:51:25;0.40;;;0.40;;
10661;SDS011;5379;51.034;7.006;2022-10-16T13:53:52;2.53;;;0.67;;
10661;SDS011;5379;51.034;7.006;2022-10-16T13:56:22;0.60;;;0.60;;
10661;SDS011;5379;51.034;7.006;2022-10-16T13:58:59;1.17;;;0.57;;
10661;SDS011;5379;51.034;7.006;2022-10-16T14:01:28;1.80;;;0.67;;
10661;SDS011;5379;51.034;7.006;2022-10-16T14:04:01;3.57;;;0.80;;
10661;SDS011;5379;51.034;7.006;2022-10-16T14:06:30;0.70;;;0.70;;
10661;SDS011;5379;51.034;7.006;2022-10-16T14:08:59;1.50;;;0.73;;
10661;SDS011;5379;51.034;7.006;2022-10-16T14:11:27;0.47;;;0.47;;
10661;SDS011;5379;51.034;7.006;2022-10-16T14:13:55;0.73;;;0.73;;
10661;SDS011;5379;51.034;7.006;2022-10-16T14:16:25;0.83;;;0.67;;
10661;SDS011;5379;51.034;7.006;2022-10-16T14:18:56;0.50;;;0.50;;
10661;SDS011;5379;51.034;7.006;2022-10-16T14:21:26;0.53;;;0.53;;
10661;SDS011;5379;51.034;7.006;2022-10-16T14:23:54;2.20;;;0.50;;
10661;SDS011;5379;51.034;7.006;2022-10-16T14:26:22;0.67;;;0.67;;
10661;SDS011;5379;51.034;7.006;2022-10-16T14:29:02;0.60;;;0.60;;
10661;SDS011;5379;51.034;7.006;2022-10-16T14:31:38;0.60;;;0.60;;
10661;SDS011;5379;51.034;7.006;2022-10-16T14:36:52;0.80;;;0.80;;
10661;SDS011;5379;51.034;7.006;2022-10-16T14:39:20;0.60;;;0.60;;
10661;SDS011;5379;51.034;7.006;2022-10-16T14:41:49;1.70;;;0.27;;
10661;SDS011;5379;51.034;7.006;2022-10-16T14:44:17;0.90;;;0.90;;
10661;SDS011;5379;51.034;7.006;2022-10-16T14:46:47;0.73;;;0.57;;
10661;SDS011;5379;51.034;7.006;2022-10-16T14:49:15;0.53;;;0.50;;
10661;SDS011;5379;51.034;7.006;2022-10-16T14:51:44;0.43;;;0.43;;
10661;SDS011;5379;51.034;7.006;2022-10-16T14:54:13;0.70;;;0.70;;
10661;SDS011;5379;51.034;7.006;2022-10-16T14:56:43;0.40;;;0.40;;
10661;SDS011;5379;51.034;7.006;2022-10-16T14:59:14;8.50;;;0.70;;
10661;SDS011;5379;51.034;7.006;2022-10-16T15:01:44;0.53;;;0.53;;
10661;SDS011;5379;51.034;7.006;2022-10-16T15:04:12;0.83;;;0.50;;
10661;SDS011;5379;51.034;7.006;2022-10-16T15:06:40;0.67;;;0.37;;
10661;SDS011;5379;51.034;7.006;2022-10-16T15:09:07;0.70;;;0.70;;
10661;SDS011;5379;51.034;7.006;2022-10-16T15:11:34;0.50;;;0.50;;
10661;SDS011;5379;51.034;7.006;2022-10-16T15:14:01;2.13;;;0.80;;
10661;SDS011;5379;51.034;7.006;2022-10-16T15:16:30;0.40;;;0.40;;
10661;SDS011;5379;51.034;7.006;2022-10-16T15:18:57;1.43;;;0.70;;
10661;SDS011;5379;51.034;7.006;2022-10-16T15:21:27;0.60;;;0.60;;
10661;SDS011;5379;51.034;7.006;2022-10-16T15:23:55;2.23;;;0.73;;
10661;SDS011;5379;51.034;7.006;2022-10-16T15:26:23;2.57;;;0.90;;
10661;SDS011;5379;51.034;7.006;2022-10-16T15:28:50;8.17;;;0.90;;
10661;SDS011;5379;51.034;7.006;2022-10-16T15:31:17;1.53;;;0.70;;